Charco, Texas
Current Conditions -  °F | °C
As of 12:15 PM on Friday 19 Dec 2014 (Local Time) from KBEA Reporting Station
Overcast Overcast  
Wind Chill: 57°   Ceiling: 2200
Heat Index: 57°   Visibility: 10mi
Dew Point: 54°   Wind: 13mph
Humidity: 90%   Direction: 10°N
Pressure: 30.06"   Gusts: 17mph
Location:  28.6563°N, 97.4287°W
Report Text: KBEA 191815Z AUTO 01011G15KT 10SM SCT012 OVC022 14/12 A3006 RMK AO2 T01400124
Loading
Personal Weather Stations






























Interactive Weather Map New forecast layout! Learn more

10-Day Weather Forecast

Advertisements
Track Severe Weather on mobile